createdAt,value
2022-12-09T00:00:27.902Z,11.37
2022-12-09T00:02:54.552Z,11.90
2022-12-09T00:05:21.421Z,12.30
2022-12-09T00:07:48.207Z,11.73
2022-12-09T00:10:14.736Z,11.90
2022-12-09T00:12:41.556Z,10.13
2022-12-09T00:15:08.833Z,11.63
2022-12-09T00:17:35.649Z,11.17
2022-12-09T00:20:02.510Z,12.07
2022-12-09T00:22:29.326Z,11.87
2022-12-09T00:24:55.990Z,12.23
2022-12-09T00:27:22.621Z,12.73
2022-12-09T00:29:49.115Z,13.17
2022-12-09T00:32:21.345Z,11.87
2022-12-09T00:34:48.997Z,12.77
2022-12-09T00:37:15.591Z,11.77
2022-12-09T00:39:41.992Z,12.60
2022-12-09T00:42:08.411Z,14.30
2022-12-09T00:44:34.826Z,12.47
2022-12-09T00:47:01.556Z,14.57
2022-12-09T00:49:28.430Z,13.37
2022-12-09T00:51:55.110Z,12.87
2022-12-09T00:54:22.058Z,13.30
2022-12-09T00:56:48.708Z,13.70
2022-12-09T00:59:15.303Z,10.20
2022-12-09T01:01:42.023Z,11.37
2022-12-09T01:04:09.025Z,10.50
2022-12-09T01:06:35.805Z,10.87
2022-12-09T01:09:03.484Z,9.40
2022-12-09T01:11:30.769Z,10.53
2022-12-09T01:14:02.305Z,9.63
2022-12-09T01:16:32.406Z,8.90
2022-12-09T01:19:02.002Z,8.60
2022-12-09T01:21:29.608Z,9.57
2022-12-09T01:23:56.503Z,9.83
2022-12-09T01:26:23.288Z,9.83
2022-12-09T01:28:52.944Z,10.43
2022-12-09T01:31:22.360Z,10.83
2022-12-09T01:33:49.366Z,10.20
2022-12-09T01:36:22.133Z,10.27
2022-12-09T01:38:50.030Z,11.13
2022-12-09T01:41:18.012Z,10.93
2022-12-09T01:43:44.893Z,10.20
2022-12-09T01:46:12.111Z,13.47
2022-12-09T01:48:43.467Z,12.47
2022-12-09T01:51:14.400Z,12.20
2022-12-09T01:53:45.251Z,11.70
2022-12-09T01:56:36.656Z,12.37
2022-12-09T01:59:11.101Z,12.00
2022-12-09T02:01:38.623Z,12.00
2022-12-09T02:04:05.926Z,12.87
2022-12-09T02:06:35.309Z,12.73
2022-12-09T02:09:02.131Z,13.70
2022-12-09T02:11:40.840Z,12.93
2022-12-09T02:14:25.016Z,13.23
2022-12-09T02:16:54.515Z,13.93
2022-12-09T02:19:48.869Z,12.63
2022-12-09T02:22:21.173Z,12.20
2022-12-09T02:25:05.343Z,14.60
2022-12-09T02:27:42.701Z,12.63
2022-12-09T02:30:12.424Z,13.07
2022-12-09T02:32:45.279Z,12.87
2022-12-09T02:35:23.896Z,12.97
2022-12-09T02:38:03.571Z,11.50
2022-12-09T02:40:44.850Z,10.10
2022-12-09T02:43:12.885Z,10.27
2022-12-09T02:45:41.436Z,10.97
2022-12-09T02:48:11.911Z,11.67
2022-12-09T02:50:41.899Z,10.23
2022-12-09T02:53:12.181Z,9.53
2022-12-09T02:55:40.570Z,10.13
2022-12-09T02:58:07.320Z,10.30
2022-12-09T03:00:34.149Z,9.47
2022-12-09T03:03:04.754Z,10.10
2022-12-09T03:05:58.239Z,11.27
2022-12-09T03:08:31.506Z,11.23
2022-12-09T03:11:03.051Z,10.43
2022-12-09T03:13:40.513Z,9.60
2022-12-09T03:16:28.995Z,10.27
2022-12-09T03:19:05.364Z,10.33
2022-12-09T03:21:35.454Z,10.43
2022-12-09T03:24:02.673Z,10.50
2022-12-09T03:26:32.268Z,11.43
2022-12-09T03:29:03.312Z,12.00
2022-12-09T03:31:32.036Z,13.00
2022-12-09T03:34:02.189Z,12.33
2022-12-09T03:36:35.315Z,14.63
2022-12-09T03:39:06.066Z,12.80
2022-12-09T03:41:33.415Z,12.20
2022-12-09T03:44:13.946Z,13.30
2022-12-09T03:46:41.033Z,12.30
2022-12-09T03:49:08.024Z,10.30
2022-12-09T03:51:56.827Z,12.60
2022-12-09T03:54:39.907Z,10.50
2022-12-09T03:57:17.005Z,11.80
2022-12-09T03:59:51.457Z,10.90
2022-12-09T04:02:18.473Z,13.10
2022-12-09T04:04:45.171Z,10.87
2022-12-09T04:07:11.690Z,12.20
2022-12-09T04:09:38.147Z,12.80
2022-12-09T04:12:04.914Z,13.13
2022-12-09T04:14:31.797Z,13.17
2022-12-09T04:16:58.388Z,10.33
2022-12-09T04:19:24.873Z,9.50
2022-12-09T04:21:51.569Z,11.73
2022-12-09T04:24:18.011Z,11.80
2022-12-09T04:26:44.968Z,11.33
2022-12-09T04:29:12.594Z,11.13
2022-12-09T04:31:39.639Z,11.10
2022-12-09T04:34:09.701Z,11.77
2022-12-09T04:36:36.752Z,10.00
2022-12-09T04:39:03.848Z,11.90
2022-12-09T04:41:30.494Z,12.53
2022-12-09T04:43:57.001Z,10.47
2022-12-09T04:46:23.958Z,11.97
2022-12-09T04:48:50.567Z,10.07
2022-12-09T04:51:17.219Z,12.23
2022-12-09T04:53:44.606Z,10.60
2022-12-09T04:56:16.623Z,11.87
2022-12-09T04:58:44.937Z,11.80
2022-12-09T05:01:18.618Z,11.50
2022-12-09T05:03:53.978Z,11.33
2022-12-09T05:06:22.977Z,11.93
2022-12-09T05:08:50.793Z,11.77
2022-12-09T05:11:19.683Z,10.20
2022-12-09T05:13:46.600Z,9.60
2022-12-09T05:16:16.892Z,11.43
2022-12-09T05:18:45.760Z,10.80
2022-12-09T05:21:15.356Z,11.30
2022-12-09T05:23:42.372Z,11.87
2022-12-09T05:26:11.342Z,11.70
2022-12-09T05:28:38.305Z,9.40
2022-12-09T05:31:15.553Z,12.77
2022-12-09T05:33:43.274Z,11.30
2022-12-09T05:36:11.815Z,10.70
2022-12-09T05:38:39.759Z,11.63
2022-12-09T05:41:06.775Z,10.20
2022-12-09T05:43:35.164Z,11.00
2022-12-09T05:46:02.114Z,11.40
2022-12-09T05:48:29.546Z,11.03
2022-12-09T05:51:01.371Z,9.63
2022-12-09T05:53:29.904Z,10.30
2022-12-09T05:55:57.425Z,11.73
2022-12-09T05:58:24.660Z,12.03
2022-12-09T06:00:51.512Z,10.20
2022-12-09T06:03:18.287Z,10.37
2022-12-09T06:05:45.264Z,10.73
2022-12-09T06:08:12.094Z,11.13
2022-12-09T06:10:40.407Z,12.00
2022-12-09T06:13:07.875Z,11.80
2022-12-09T06:15:35.169Z,11.87
2022-12-09T06:18:02.555Z,11.40
2022-12-09T06:20:29.331Z,10.93
2022-12-09T06:22:56.361Z,10.67
2022-12-09T06:25:23.288Z,9.87
2022-12-09T06:27:52.091Z,10.97
2022-12-09T06:30:19.742Z,10.00
2022-12-09T06:32:46.716Z,9.20
2022-12-09T06:35:14.170Z,9.50
2022-12-09T06:37:41.667Z,9.37
2022-12-09T06:40:10.223Z,9.57
2022-12-09T06:42:36.988Z,10.20
2022-12-09T06:45:04.049Z,9.50
2022-12-09T06:47:30.643Z,10.37
2022-12-09T06:50:02.615Z,9.87
2022-12-09T06:52:32.917Z,10.77
2022-12-09T06:54:59.451Z,9.30
2022-12-09T06:57:26.227Z,10.73
2022-12-09T06:59:53.100Z,10.00
2022-12-09T07:02:19.860Z,9.07
2022-12-09T07:04:47.004Z,9.83
2022-12-09T07:07:15.143Z,10.50
2022-12-09T07:09:41.995Z,9.70
2022-12-09T07:12:08.607Z,10.07
2022-12-09T07:14:36.920Z,11.13
2022-12-09T07:17:04.587Z,10.80
2022-12-09T07:19:32.157Z,12.77
2022-12-09T07:21:59.201Z,10.50
2022-12-09T07:24:26.738Z,12.57
2022-12-09T07:26:53.278Z,12.40
2022-12-09T07:29:20.120Z,12.70
2022-12-09T07:31:48.700Z,13.53
2022-12-09T07:34:15.970Z,11.33
2022-12-09T07:36:42.635Z,11.43
2022-12-09T07:39:15.507Z,11.97
2022-12-09T07:41:42.760Z,12.10
2022-12-09T07:44:11.138Z,11.50
2022-12-09T07:46:38.861Z,12.87
2022-12-09T07:49:06.559Z,11.23
2022-12-09T07:51:33.549Z,12.03
2022-12-09T07:54:00.990Z,11.10
2022-12-09T07:56:29.179Z,11.57
2022-12-09T07:58:57.376Z,11.77
2022-12-09T08:01:26.683Z,11.87
2022-12-09T08:03:54.380Z,10.73
2022-12-09T08:06:23.836Z,12.30
2022-12-09T08:08:51.380Z,10.77
2022-12-09T08:11:21.538Z,10.40
2022-12-09T08:13:49.038Z,10.53
2022-12-09T08:16:18.512Z,10.40
2022-12-09T08:18:46.363Z,9.30
2022-12-09T08:21:16.719Z,10.97
2022-12-09T08:23:44.063Z,10.47
2022-12-09T08:26:12.041Z,11.53
2022-12-09T08:28:38.882Z,9.63
2022-12-09T08:31:17.689Z,10.07
2022-12-09T08:33:44.836Z,10.83
2022-12-09T08:36:14.510Z,10.57
2022-12-09T08:38:42.062Z,10.83
2022-12-09T08:41:18.232Z,11.43
2022-12-09T08:43:46.425Z,12.27
2022-12-09T08:46:13.896Z,10.87
2022-12-09T08:48:42.480Z,11.30
2022-12-09T08:51:11.512Z,9.70
2022-12-09T08:53:38.425Z,13.27
2022-12-09T08:56:13.143Z,12.23
2022-12-09T08:58:41.374Z,11.77
2022-12-09T09:01:14.003Z,12.17
2022-12-09T09:03:40.891Z,12.87
2022-12-09T09:06:10.841Z,11.10
2022-12-09T09:08:39.127Z,12.10
2022-12-09T09:11:18.227Z,12.70
2022-12-09T09:13:47.151Z,13.53
2022-12-09T09:16:16.209Z,13.37
2022-12-09T09:18:43.793Z,11.43
2022-12-09T09:21:12.458Z,13.33
2022-12-09T09:23:40.190Z,12.43
2022-12-09T09:26:16.580Z,13.10
2022-12-09T09:28:43.377Z,12.67
2022-12-09T09:31:12.760Z,13.83
2022-12-09T09:33:40.773Z,12.87
2022-12-09T09:36:11.527Z,12.77
2022-12-09T09:38:38.739Z,12.13
2022-12-09T09:41:24.749Z,13.67
2022-12-09T09:43:52.503Z,11.67
2022-12-09T09:46:37.302Z,12.03
2022-12-09T09:49:07.876Z,12.60
2022-12-09T09:51:37.282Z,13.60
2022-12-09T09:54:08.475Z,14.97
2022-12-09T09:56:41.122Z,14.60
2022-12-09T09:59:25.361Z,13.80
2022-12-09T10:02:05.814Z,14.30
2022-12-09T10:05:03.456Z,14.13
2022-12-09T10:07:44.110Z,13.77
2022-12-09T10:10:25.023Z,12.67
2022-12-09T10:13:18.216Z,16.43
2022-12-09T10:16:06.516Z,15.20
2022-12-09T10:18:39.863Z,14.07
2022-12-09T10:21:17.342Z,14.60
2022-12-09T10:23:45.845Z,15.47
2022-12-09T10:26:32.200Z,13.63
2022-12-09T10:29:11.473Z,17.23
2022-12-09T10:31:38.251Z,16.40
2022-12-09T10:34:05.479Z,15.97
2022-12-09T10:36:36.005Z,14.40
2022-12-09T10:39:05.448Z,13.17
2022-12-09T10:42:18.202Z,13.37
2022-12-09T10:44:46.412Z,14.30
2022-12-09T10:47:27.155Z,15.87
2022-12-09T10:49:55.522Z,15.87
2022-12-09T10:52:31.910Z,14.93
2022-12-09T10:54:58.847Z,15.67
2022-12-09T10:57:29.050Z,16.03
2022-12-09T11:00:32.709Z,15.00
2022-12-09T11:03:01.498Z,14.93
2022-12-09T11:05:32.065Z,16.40
2022-12-09T11:07:59.774Z,17.73
2022-12-09T11:10:29.647Z,19.60
2022-12-09T11:13:04.395Z,17.23
2022-12-09T11:15:44.983Z,18.13
2022-12-09T11:18:25.541Z,16.27
2022-12-09T11:21:01.813Z,15.77
2022-12-09T11:23:29.512Z,17.30
2022-12-09T11:26:00.304Z,15.07
2022-12-09T11:28:30.343Z,14.97
2022-12-09T11:33:55.480Z,13.70
2022-12-09T11:36:29.793Z,15.90
2022-12-09T11:39:14.737Z,18.93
2022-12-09T11:42:06.208Z,18.73
2022-12-09T11:44:36.291Z,19.33
2022-12-09T11:47:07.708Z,16.33
2022-12-09T11:49:55.685Z,16.90
2022-12-09T11:52:26.712Z,20.07
2022-12-09T11:54:57.313Z,21.20
2022-12-09T11:57:45.063Z,20.23
2022-12-09T12:00:19.143Z,15.23
2022-12-09T12:02:58.099Z,16.70
2022-12-09T12:05:45.606Z,19.50
2022-12-09T12:08:19.799Z,18.83
2022-12-09T12:10:53.330Z,15.83
2022-12-09T12:13:40.343Z,16.87
2022-12-09T12:16:21.982Z,15.77
2022-12-09T12:19:22.489Z,15.57
2022-12-09T12:22:25.962Z,15.97
2022-12-09T12:24:52.362Z,16.43
2022-12-09T12:27:46.654Z,17.77
2022-12-09T12:30:15.827Z,17.23
2022-12-09T12:33:59.861Z,14.97
2022-12-09T12:36:07.359Z,16.33
2022-12-09T12:38:55.094Z,15.83
2022-12-09T12:41:33.665Z,17.33
2022-12-09T12:44:31.990Z,17.80
2022-12-09T12:47:25.550Z,16.30
2022-12-09T12:50:14.116Z,14.80
2022-12-09T12:52:56.404Z,17.50
2022-12-09T12:55:46.039Z,14.50
2022-12-09T12:58:43.615Z,14.60
2022-12-09T13:01:22.434Z,15.30
2022-12-09T13:04:20.551Z,16.60
2022-12-09T13:07:26.381Z,15.20
2022-12-09T13:10:02.942Z,15.13
2022-12-09T13:12:53.813Z,15.67
2022-12-09T13:15:32.113Z,16.30
2022-12-09T13:18:39.831Z,16.60
2022-12-09T13:21:07.673Z,16.83
2022-12-09T13:23:58.761Z,17.27
2022-12-09T13:26:53.411Z,16.63
2022-12-09T13:29:53.870Z,19.53
2022-12-09T13:32:44.693Z,19.53
2022-12-09T13:35:23.913Z,15.87
2022-12-09T13:37:52.303Z,16.83
2022-12-09T13:40:21.524Z,16.03
2022-12-09T13:43:01.347Z,19.20
2022-12-09T13:45:30.417Z,18.17
2022-12-09T13:48:27.080Z,18.67
2022-12-09T13:50:57.668Z,17.17
2022-12-09T13:53:29.512Z,19.90
2022-12-09T13:56:17.216Z,18.63
2022-12-09T13:58:55.640Z,18.37
2022-12-09T14:01:33.034Z,16.00
2022-12-09T14:04:33.695Z,16.53
2022-12-09T14:07:16.331Z,16.93
2022-12-09T14:09:46.888Z,19.40
2022-12-09T14:12:25.368Z,16.90
2022-12-09T14:15:24.209Z,21.43
2022-12-09T14:17:50.611Z,18.53
2022-12-09T14:20:22.160Z,20.53
2022-12-09T14:23:06.751Z,21.23
2022-12-09T14:25:35.763Z,21.47
2022-12-09T14:28:20.983Z,21.53
2022-12-09T14:30:59.755Z,21.07
2022-12-09T14:33:31.757Z,21.77
2022-12-09T14:36:13.484Z,23.27
2022-12-09T14:39:15.679Z,22.70
2022-12-09T14:41:48.843Z,19.37
2022-12-09T14:44:34.092Z,23.17
2022-12-09T14:47:21.041Z,23.33
2022-12-09T14:49:49.840Z,23.07
2022-12-09T14:52:25.399Z,22.57
2022-12-09T14:54:54.515Z,23.50
2022-12-09T14:57:25.955Z,21.63
2022-12-09T14:59:55.062Z,22.43
2022-12-09T15:02:25.066Z,24.60
2022-12-09T15:04:53.765Z,22.57
2022-12-09T15:07:25.007Z,23.70
2022-12-09T15:09:56.425Z,25.97
2022-12-09T15:12:32.460Z,22.70
2022-12-09T15:15:04.124Z,23.00
2022-12-09T15:17:36.399Z,23.17
2022-12-09T15:20:04.585Z,22.20
2022-12-09T15:22:32.734Z,21.43
2022-12-09T15:24:59.856Z,21.33
2022-12-09T15:27:27.394Z,21.53
2022-12-09T15:29:54.668Z,20.03
2022-12-09T15:32:30.392Z,20.57
2022-12-09T15:35:16.372Z,20.00
2022-12-09T15:37:43.136Z,18.77
2022-12-09T15:40:14.028Z,21.20
2022-12-09T15:42:44.192Z,19.43
2022-12-09T15:45:19.340Z,19.73
2022-12-09T15:47:54.759Z,18.60
2022-12-09T15:50:28.987Z,19.93
2022-12-09T15:53:16.182Z,18.77
2022-12-09T15:55:50.462Z,19.47
2022-12-09T15:58:22.644Z,17.43
2022-12-09T16:00:51.249Z,18.60
2022-12-09T16:03:25.512Z,17.30
2022-12-09T16:06:04.380Z,17.80
2022-12-09T16:08:33.266Z,18.63
2022-12-09T16:10:59.759Z,18.87
2022-12-09T16:13:26.598Z,17.93
2022-12-09T16:15:58.515Z,20.47
2022-12-09T16:18:46.023Z,15.23
2022-12-09T16:21:15.206Z,13.97
2022-12-09T16:23:53.688Z,13.43
2022-12-09T16:26:29.350Z,13.63
2022-12-09T16:28:59.513Z,14.20
2022-12-09T16:31:26.452Z,12.67
2022-12-09T16:33:53.020Z,13.17
2022-12-09T16:36:31.774Z,14.07
2022-12-09T16:39:07.519Z,12.50
2022-12-09T16:41:55.878Z,13.93
2022-12-09T16:44:43.517Z,14.33
2022-12-09T16:47:16.318Z,12.30
2022-12-09T16:49:46.111Z,12.97
2022-12-09T16:52:20.488Z,13.13
2022-12-09T16:54:48.851Z,12.03
2022-12-09T16:57:17.650Z,13.07
2022-12-09T16:59:45.351Z,14.77
2022-12-09T17:02:30.362Z,13.33
2022-12-09T17:04:56.881Z,12.80
2022-12-09T17:07:23.302Z,14.20
2022-12-09T17:09:49.681Z,11.97
2022-12-09T17:12:16.149Z,13.43
2022-12-09T17:14:42.656Z,13.63
2022-12-09T17:17:10.384Z,13.87
2022-12-09T17:19:37.005Z,12.30
2022-12-09T17:22:03.598Z,12.87
2022-12-09T17:24:29.972Z,11.77
2022-12-09T17:26:56.430Z,11.93
2022-12-09T17:29:22.845Z,11.67
2022-12-09T17:31:51.673Z,12.33
2022-12-09T17:34:18.702Z,10.33
2022-12-09T17:36:45.339Z,10.77
2022-12-09T17:39:12.800Z,11.57
2022-12-09T17:41:39.474Z,11.27
2022-12-09T17:44:05.867Z,11.53
2022-12-09T17:46:32.318Z,11.17
2022-12-09T17:49:02.258Z,11.23
2022-12-09T17:51:34.064Z,10.23
2022-12-09T17:54:02.278Z,11.83
2022-12-09T17:56:28.708Z,11.43
2022-12-09T17:59:02.754Z,12.03
2022-12-09T18:01:29.480Z,13.43
2022-12-09T18:04:06.213Z,12.77
2022-12-09T18:06:35.300Z,11.27
2022-12-09T18:09:03.733Z,12.37
2022-12-09T18:11:30.228Z,13.13
2022-12-09T18:13:57.166Z,11.20
2022-12-09T18:16:23.820Z,14.03
2022-12-09T18:18:50.545Z,13.60
2022-12-09T18:21:19.719Z,13.33
2022-12-09T18:23:46.392Z,12.97
2022-12-09T18:26:15.778Z,12.80
2022-12-09T18:28:42.401Z,13.73
2022-12-09T18:31:11.724Z,13.23
2022-12-09T18:33:39.241Z,14.57
2022-12-09T18:36:12.472Z,13.80
2022-12-09T18:38:40.079Z,14.23
2022-12-09T18:41:33.567Z,14.70
2022-12-09T18:44:06.201Z,13.27
2022-12-09T18:46:36.498Z,14.57
2022-12-09T18:49:10.638Z,14.67
2022-12-09T18:51:38.827Z,14.30
2022-12-09T18:54:06.630Z,14.83
2022-12-09T18:56:33.743Z,15.30
2022-12-09T18:59:09.071Z,13.77
2022-12-09T19:01:39.619Z,15.30
2022-12-09T19:04:08.885Z,14.43
2022-12-09T19:06:37.829Z,14.13
2022-12-09T19:09:16.634Z,15.80
2022-12-09T19:11:44.810Z,15.77
2022-12-09T19:14:11.649Z,14.27
2022-12-09T19:16:38.129Z,15.10
2022-12-09T19:19:09.658Z,14.37
2022-12-09T19:21:37.513Z,14.63
2022-12-09T19:24:04.087Z,13.10
2022-12-09T19:26:32.782Z,12.83
2022-12-09T19:29:04.701Z,15.27
2022-12-09T19:31:45.385Z,15.60
2022-12-09T19:34:16.761Z,13.23
2022-12-09T19:36:44.695Z,15.03
2022-12-09T19:39:12.411Z,15.03
2022-12-09T19:41:40.379Z,15.73
2022-12-09T19:44:09.729Z,15.37
2022-12-09T19:46:38.489Z,16.10
2022-12-09T19:49:05.305Z,14.77
2022-12-09T19:51:32.240Z,18.03
2022-12-09T19:54:00.478Z,16.37
2022-12-09T19:56:28.513Z,19.57
2022-12-09T19:58:55.232Z,17.13
2022-12-09T20:01:23.249Z,20.10
2022-12-09T20:03:52.496Z,19.60
2022-12-09T20:06:20.250Z,18.97
2022-12-09T20:08:48.052Z,19.10
2022-12-09T20:11:21.010Z,15.93
2022-12-09T20:13:48.034Z,17.33
2022-12-09T20:16:17.322Z,17.23
2022-12-09T20:18:45.356Z,20.50
2022-12-09T20:21:13.456Z,21.67
2022-12-09T20:23:42.059Z,20.93
2022-12-09T20:26:14.409Z,18.40
2022-12-09T20:28:42.573Z,18.27
2022-12-09T20:31:12.557Z,18.23
2022-12-09T20:33:39.331Z,17.90
2022-12-09T20:36:10.375Z,17.63
2022-12-09T20:38:37.990Z,16.67
2022-12-09T20:41:11.941Z,17.10
2022-12-09T20:43:39.705Z,17.90
2022-12-09T20:46:11.262Z,17.30
2022-12-09T20:48:39.042Z,16.17
2022-12-09T20:51:15.616Z,17.47
2022-12-09T20:53:43.951Z,16.50
2022-12-09T20:56:11.509Z,17.77
2022-12-09T20:58:39.428Z,19.40
2022-12-09T21:01:11.072Z,19.77
2022-12-09T21:03:37.604Z,18.60
2022-12-09T21:06:05.149Z,19.23
2022-12-09T21:08:32.177Z,18.40
2022-12-09T21:11:21.321Z,20.40
2022-12-09T21:13:50.733Z,18.60
2022-12-09T21:16:23.438Z,17.97
2022-12-09T21:18:52.373Z,18.57
2022-12-09T21:21:20.430Z,18.50
2022-12-09T21:23:50.132Z,20.30
2022-12-09T21:26:18.441Z,17.07
2022-12-09T21:28:46.530Z,16.27
2022-12-09T21:31:23.827Z,17.77
2022-12-09T21:33:51.456Z,16.80
2022-12-09T21:36:22.026Z,18.73
2022-12-09T21:38:48.396Z,18.53
2022-12-09T21:41:17.877Z,17.63
2022-12-09T21:43:45.212Z,15.90
2022-12-09T21:46:18.935Z,14.97
2022-12-09T21:48:51.813Z,15.97
2022-12-09T21:51:20.910Z,16.50
2022-12-09T21:53:48.717Z,17.07
2022-12-09T21:56:20.431Z,17.37
2022-12-09T21:58:49.638Z,16.70
2022-12-09T22:01:23.006Z,16.73
2022-12-09T22:03:49.791Z,17.30
2022-12-09T22:06:17.257Z,18.13
2022-12-09T22:08:44.598Z,18.00
2022-12-09T22:11:14.066Z,18.33
2022-12-09T22:13:41.466Z,19.40
2022-12-09T22:16:09.753Z,18.47
2022-12-09T22:18:36.480Z,16.67
2022-12-09T22:21:25.058Z,18.10
2022-12-09T22:23:54.601Z,17.50
2022-12-09T22:26:21.650Z,17.33
2022-12-09T22:28:48.531Z,18.53
2022-12-09T22:31:22.719Z,16.33
2022-12-09T22:33:51.358Z,16.30
2022-12-09T22:36:18.046Z,15.47
2022-12-09T22:38:44.880Z,16.23
2022-12-09T22:41:13.833Z,14.13
2022-12-09T22:43:41.230Z,14.23
2022-12-09T22:46:12.522Z,12.47
2022-12-09T22:48:40.316Z,15.20
2022-12-09T22:51:09.705Z,13.97
2022-12-09T22:53:36.680Z,13.27
2022-12-09T22:56:04.024Z,13.03
2022-12-09T22:58:30.460Z,13.77
2022-12-09T23:00:57.296Z,13.73
2022-12-09T23:03:23.765Z,13.30
2022-12-09T23:05:50.730Z,14.27
2022-12-09T23:08:17.324Z,14.73
2022-12-09T23:10:44.089Z,13.37
2022-12-09T23:13:10.901Z,13.57
2022-12-09T23:15:37.515Z,14.73
2022-12-09T23:18:04.066Z,13.37
2022-12-09T23:20:30.597Z,14.40
2022-12-09T23:22:57.380Z,15.23
2022-12-09T23:25:23.735Z,13.63
2022-12-09T23:27:50.198Z,14.03
2022-12-09T23:30:16.659Z,14.70
2022-12-09T23:32:43.041Z,12.67
2022-12-09T23:35:09.669Z,15.63
2022-12-09T23:37:36.101Z,13.07
2022-12-09T23:40:02.554Z,12.70
2022-12-09T23:42:29.018Z,12.03
2022-12-09T23:44:55.369Z,11.93
2022-12-09T23:47:21.843Z,11.97
2022-12-09T23:49:48.250Z,12.67
2022-12-09T23:52:14.675Z,12.97
2022-12-09T23:54:41.074Z,12.43
2022-12-09T23:57:07.878Z,12.53
2022-12-09T23:59:34.269Z,10.90
